Time;durP1;ratioP1;P1;durP2;ratioP2;P2;SDS_P1;SDS_P2;PMS_P1;PMS_P2;Temp;Humidity;BMP_temperature;BMP_pressure;BME280_temperature;BME280_humidity;BME280_pressure;Samples;Min_cycle;Max_cycle;Signal;HPM_P1;HPM_P2
2022/11/19 00:00:19;;;;;;;3.83;3.40;;;1.70;99.90;;;;;;5113455;28;20112;-62
2022/11/19 00:02:45;;;;;;;5.57;3.28;;;1.70;99.90;;;;;;5112436;28;20062;-61
2022/11/19 00:05:10;;;;;;;3.80;3.45;;;1.70;99.90;;;;;;5113902;28;20039;-62
2022/11/19 00:07:36;;;;;;;4.45;3.53;;;1.60;99.90;;;;;;5114901;28;20047;-61
2022/11/19 00:10:02;;;;;;;5.10;3.55;;;1.60;99.90;;;;;;5114906;28;20092;-62
2022/11/19 00:15:12;;;;;;;5.68;3.85;;;1.50;99.90;;;;;;5114720;28;20043;-61
2022/11/19 00:17:37;;;;;;;5.78;3.50;;;1.50;99.90;;;;;;5114405;28;20141;-62
2022/11/19 00:20:03;;;;;;;5.20;3.50;;;1.40;99.90;;;;;;5096597;28;20051;-62
2022/11/19 00:22:29;;;;;;;4.72;3.55;;;1.40;99.90;;;;;;5114608;28;20039;-62
2022/11/19 00:24:54;;;;;;;4.18;3.50;;;1.40;99.90;;;;;;5096164;28;20469;-62
2022/11/19 00:27:20;;;;;;;5.88;4.03;;;1.30;99.90;;;;;;5114505;28;20040;-62
2022/11/19 00:29:45;;;;;;;4.88;3.53;;;1.20;99.90;;;;;;5114014;28;20031;-62
2022/11/19 00:32:11;;;;;;;4.30;3.45;;;1.20;99.90;;;;;;5114035;28;20500;-62
2022/11/19 00:34:36;;;;;;;5.90;3.83;;;1.20;99.90;;;;;;5113606;28;20036;-61
2022/11/19 00:37:02;;;;;;;4.75;3.97;;;1.10;99.90;;;;;;5114283;28;20130;-62
2022/11/19 00:39:28;;;;;;;5.28;4.18;;;1.10;99.90;;;;;;5114228;28;20035;-61
2022/11/19 00:41:53;;;;;;;5.35;3.85;;;1.10;99.90;;;;;;5114119;28;20039;-61
2022/11/19 00:44:19;;;;;;;5.05;3.85;;;1.00;99.90;;;;;;5114132;28;20067;-61
2022/11/19 00:46:45;;;;;;;5.63;4.13;;;1.00;99.90;;;;;;5114105;28;20043;-62
2022/11/19 00:49:10;;;;;;;6.00;4.10;;;1.00;99.90;;;;;;5095537;28;20058;-61
2022/11/19 00:51:36;;;;;;;4.53;3.80;;;1.00;99.90;;;;;;5114019;28;20504;-62
2022/11/19 00:54:01;;;;;;;7.28;4.13;;;0.90;99.90;;;;;;5114129;28;20040;-62
2022/11/19 00:56:27;;;;;;;5.13;4.00;;;0.90;99.90;;;;;;5113864;28;20443;-62
2022/11/19 00:58:53;;;;;;;5.15;4.03;;;0.90;99.90;;;;;;5113864;28;20035;-62
2022/11/19 01:01:22;;;;;;;5.15;4.13;;;0.90;99.90;;;;;;5113625;28;20042;-62
2022/11/19 01:03:48;;;;;;;5.05;4.00;;;0.80;99.90;;;;;;5113991;28;20043;-62
2022/11/19 01:06:16;;;;;;;5.63;4.15;;;0.80;99.90;;;;;;5113724;28;20039;-62
2022/11/19 01:08:41;;;;;;;5.70;3.95;;;0.80;99.90;;;;;;5113630;28;20435;-62
2022/11/19 01:11:28;;;;;;;6.15;4.68;;;0.70;99.90;;;;;;5113457;28;20059;-61
2022/11/19 01:13:55;;;;;;;6.05;4.22;;;0.70;99.90;;;;;;5113378;28;20142;-62
2022/11/19 01:16:40;;;;;;;5.65;4.25;;;0.70;99.90;;;;;;5113745;28;20031;-61
2022/11/19 01:19:09;;;;;;;5.20;4.15;;;0.70;99.90;;;;;;5113405;28;20028;-62
2022/11/19 01:21:35;;;;;;;6.65;4.18;;;0.70;99.90;;;;;;5113700;28;20039;-62
2022/11/19 01:24:03;;;;;;;5.75;4.30;;;0.60;99.90;;;;;;5113295;28;20535;-61
2022/11/19 01:26:29;;;;;;;5.78;4.68;;;0.60;99.90;;;;;;5095274;28;20039;-61
2022/11/19 01:28:55;;;;;;;6.05;4.30;;;0.60;99.90;;;;;;5113390;28;20044;-62
2022/11/19 01:31:23;;;;;;;5.75;4.85;;;0.50;99.90;;;;;;5113255;28;20512;-62
2022/11/19 01:33:49;;;;;;;6.07;4.60;;;0.50;99.90;;;;;;5113257;28;20043;-62
2022/11/19 01:36:24;;;;;;;6.32;4.20;;;0.60;99.90;;;;;;5113107;28;20172;-61
2022/11/19 01:38:50;;;;;;;6.13;4.53;;;0.60;99.90;;;;;;5113122;28;20043;-63
2022/11/19 01:41:28;;;;;;;8.40;4.80;;;0.60;99.90;;;;;;5113114;28;20040;-62
2022/11/19 01:44:00;;;;;;;7.93;4.68;;;0.60;99.90;;;;;;5112987;28;20393;-61
2022/11/19 01:46:29;;;;;;;6.25;4.43;;;0.50;99.90;;;;;;5113083;28;20063;-62
2022/11/19 01:48:58;;;;;;;5.90;4.72;;;0.60;99.90;;;;;;5112898;28;20035;-62
2022/11/19 01:51:50;;;;;;;7.35;4.57;;;0.50;99.90;;;;;;5112767;28;20405;-62
2022/11/19 01:54:27;;;;;;;6.72;4.80;;;0.50;99.90;;;;;;5112914;28;20400;-62
2022/11/19 01:56:54;;;;;;;5.88;4.32;;;0.50;99.90;;;;;;5112800;28;20040;-62
2022/11/19 01:59:20;;;;;;;6.93;4.80;;;0.50;99.90;;;;;;5112748;28;20038;-62
2022/11/19 02:01:46;;;;;;;5.50;4.75;;;0.50;99.90;;;;;;5112443;28;20115;-62
2022/11/19 02:04:13;;;;;;;5.75;4.60;;;0.50;99.90;;;;;;5112793;28;20038;-61
2022/11/19 02:06:41;;;;;;;7.00;4.85;;;0.40;99.90;;;;;;5112573;28;20035;-61
2022/11/19 02:09:06;;;;;;;6.63;4.55;;;0.40;99.90;;;;;;5112593;28;20047;-61
2022/11/19 02:11:38;;;;;;;6.22;4.68;;;0.40;99.90;;;;;;5112379;28;20040;-61
2022/11/19 02:14:32;;;;;;;6.85;4.72;;;0.30;99.90;;;;;;5112103;28;20433;-61
2022/11/19 02:17:16;;;;;;;7.47;5.10;;;0.30;99.90;;;;;;5112265;28;20508;-61
2022/11/19 02:20:10;;;;;;;7.32;5.18;;;0.30;99.90;;;;;;5112700;28;20043;-61
2022/11/19 02:23:07;;;;;;;6.95;4.80;;;0.20;99.90;;;;;;5112345;28;20114;-62
2022/11/19 02:26:02;;;;;;;8.40;4.90;;;0.20;99.90;;;;;;5112344;28;20047;-62
2022/11/19 02:28:50;;;;;;;7.75;5.07;;;0.20;99.90;;;;;;5009842;28;20133;-61
2022/11/19 02:31:30;;;;;;;8.10;5.07;;;0.20;99.90;;;;;;5009937;28;20037;-63
2022/11/19 02:33:55;;;;;;;6.50;5.25;;;0.10;99.90;;;;;;5010017;28;20084;-61
2022/11/19 02:36:33;;;;;;;6.32;4.82;;;0.10;99.90;;;;;;5009716;28;20046;-61
2022/11/19 02:39:31;;;;;;;7.55;5.18;;;0.10;99.90;;;;;;5009932;28;20469;-61
2022/11/19 02:42:15;;;;;;;8.38;5.47;;;0.00;99.90;;;;;;5010092;28;20046;-61
2022/11/19 02:44:58;;;;;;;6.85;5.43;;;0.00;99.90;;;;;;4993618;28;20400;-61
2022/11/19 02:47:57;;;;;;;7.93;5.25;;;0.00;99.90;;;;;;5009762;28;20042;-62
2022/11/19 02:50:32;;;;;;;8.90;5.63;;;-0.10;99.90;;;;;;5009633;28;20057;-61
2022/11/19 02:52:58;;;;;;;8.70;5.47;;;-0.10;99.90;;;;;;5009631;28;20045;-61
2022/11/19 02:55:24;;;;;;;7.78;5.50;;;-0.10;99.90;;;;;;5009692;28;20034;-61
2022/11/19 02:58:01;;;;;;;7.10;5.82;;;-0.20;99.90;;;;;;5013023;28;20046;-61
2022/11/19 03:06:11;;;;;;;7.45;5.75;;;-0.20;99.90;;;;;;5098240;28;20489;-61
2022/11/19 03:08:37;;;;;;;8.07;6.05;;;-0.30;99.90;;;;;;5116193;28;20065;-61
2022/11/19 03:11:18;;;;;;;6.95;4.90;;;-0.30;99.90;;;;;;5115959;28;20039;-62
2022/11/19 03:16:54;;;;;;;8.13;5.43;;;-0.30;99.90;;;;;;5115640;28;20509;-62
2022/11/19 03:19:38;;;;;;;6.50;5.38;;;-0.30;99.90;;;;;;5116298;28;20348;-61
2022/11/19 03:22:14;;;;;;;6.63;5.32;;;-0.40;99.90;;;;;;5116050;28;20384;-61
2022/11/19 03:24:44;;;;;;;6.15;4.90;;;-0.40;99.90;;;;;;5115605;28;20384;-62
2022/11/19 03:27:37;;;;;;;7.75;5.60;;;-0.40;99.90;;;;;;5115664;28;20464;-61
2022/11/19 03:30:04;;;;;;;6.03;4.63;;;-0.40;99.90;;;;;;5096887;28;20075;-61
2022/11/19 03:32:55;;;;;;;6.20;4.88;;;-0.30;99.90;;;;;;5115855;28;20047;-61
2022/11/19 03:35:59;;;;;;;6.82;5.10;;;-0.40;99.90;;;;;;5012995;28;20137;-61
2022/11/19 03:38:31;;;;;;;6.97;5.60;;;-0.40;99.90;;;;;;5010021;28;20057;-61
2022/11/19 03:40:58;;;;;;;6.90;5.43;;;-0.50;99.90;;;;;;5012869;28;20053;-61
2022/11/19 03:43:28;;;;;;;7.90;5.32;;;-0.40;99.90;;;;;;5012869;28;20050;-62
2022/11/19 03:45:57;;;;;;;7.75;4.80;;;-0.40;99.90;;;;;;5012718;28;20092;-62
2022/11/19 03:48:24;;;;;;;6.57;4.95;;;-0.50;99.90;;;;;;5012859;28;20042;-62
2022/11/19 03:50:52;;;;;;;8.30;5.50;;;-0.50;99.90;;;;;;5013144;28;20489;-61
2022/11/19 03:53:19;;;;;;;9.23;5.88;;;-0.50;99.90;;;;;;5012761;28;20169;-61
2022/11/19 03:55:56;;;;;;;7.07;5.03;;;-0.50;99.90;;;;;;5012759;28;20042;-61
2022/11/19 03:58:26;;;;;;;7.43;5.28;;;-0.50;99.90;;;;;;5012520;28;20129;-62
2022/11/19 04:00:52;;;;;;;7.20;5.35;;;-0.50;99.90;;;;;;5012648;28;20053;-61
2022/11/19 04:03:18;;;;;;;10.57;5.60;;;-0.50;99.90;;;;;;5012540;28;20037;-61
2022/11/19 04:05:44;;;;;;;7.10;5.32;;;-0.50;99.90;;;;;;5012378;28;20092;-62
2022/11/19 04:08:10;;;;;;;7.80;5.25;;;-0.60;99.90;;;;;;5011181;28;20069;-61
2022/11/19 04:10:35;;;;;;;7.88;5.38;;;-0.50;99.90;;;;;;5012389;28;20399;-61
2022/11/19 04:13:01;;;;;;;6.70;5.00;;;-0.50;99.90;;;;;;5094608;28;20553;-61
2022/11/19 04:15:27;;;;;;;6.35;4.90;;;-0.60;99.90;;;;;;5114905;28;20036;-61
2022/11/19 04:17:52;;;;;;;7.40;5.32;;;-0.60;99.90;;;;;;5114707;28;20066;-61
2022/11/19 04:20:18;;;;;;;7.88;5.35;;;-0.60;99.90;;;;;;5114619;28;20039;-61
2022/11/19 04:22:44;;;;;;;6.70;4.90;;;-0.70;99.90;;;;;;5114717;28;20039;-61
2022/11/19 04:25:09;;;;;;;7.88;5.68;;;-0.60;99.90;;;;;;5114693;28;20031;-61
2022/11/19 04:27:35;;;;;;;7.22;5.18;;;-0.70;99.90;;;;;;5114714;28;20043;-61
2022/11/19 04:30:01;;;;;;;7.80;5.38;;;-0.70;99.90;;;;;;5114748;28;20077;-61
2022/11/19 04:32:27;;;;;;;6.60;5.22;;;-0.80;99.90;;;;;;5114852;28;20497;-62
2022/11/19 04:34:53;;;;;;;11.15;5.80;;;-0.80;99.90;;;;;;5114689;28;20047;-61
2022/11/19 04:37:18;;;;;;;7.05;5.60;;;-0.80;99.90;;;;;;5114375;28;20092;-62
2022/11/19 04:39:44;;;;;;;7.25;5.30;;;-0.90;99.90;;;;;;5114380;28;20039;-62
2022/11/19 04:42:09;;;;;;;9.85;6.15;;;-0.90;99.90;;;;;;5114277;28;20046;-61
2022/11/19 04:44:35;;;;;;;7.13;5.30;;;-0.90;99.90;;;;;;5114321;28;20205;-61
2022/11/19 04:47:01;;;;;;;8.07;5.90;;;-0.90;99.90;;;;;;5114311;28;20035;-61
2022/11/19 04:49:26;;;;;;;7.43;5.63;;;-0.90;99.90;;;;;;5114537;28;20129;-61
2022/11/19 04:51:52;;;;;;;7.45;5.63;;;-0.90;99.90;;;;;;5114107;28;20042;-62
2022/11/19 04:54:17;;;;;;;10.45;6.03;;;-0.90;99.90;;;;;;5114043;28;20386;-61
2022/11/19 04:56:43;;;;;;;8.68;5.38;;;-0.90;99.90;;;;;;5113842;28;20039;-61
2022/11/19 04:59:09;;;;;;;8.35;5.55;;;-0.90;99.90;;;;;;5114154;28;20088;-61
2022/11/19 05:01:35;;;;;;;8.07;6.57;;;-0.90;99.90;;;;;;5113989;28;20108;-62
2022/11/19 05:04:00;;;;;;;9.23;6.03;;;-1.00;99.90;;;;;;5113910;28;20067;-61
2022/11/19 05:06:26;;;;;;;8.38;6.03;;;-0.90;99.90;;;;;;5113829;28;20837;-62
2022/11/19 05:08:51;;;;;;;8.57;5.53;;;-1.00;99.90;;;;;;5113884;28;20061;-61
2022/11/19 05:11:17;;;;;;;7.40;5.70;;;-1.00;99.90;;;;;;5113680;28;20039;-61
2022/11/19 05:13:43;;;;;;;8.02;5.90;;;-1.00;99.90;;;;;;5113467;28;20055;-61
2022/11/19 05:16:08;;;;;;;6.95;5.57;;;-1.00;99.90;;;;;;5113689;28;20039;-61
2022/11/19 05:18:34;;;;;;;7.15;5.22;;;-1.00;99.90;;;;;;5113213;28;20393;-61
2022/11/19 05:20:59;;;;;;;8.25;5.95;;;-1.00;99.90;;;;;;5111364;28;20042;-61
2022/11/19 05:23:25;;;;;;;7.50;5.30;;;-1.00;99.90;;;;;;5111545;28;20036;-62
2022/11/19 05:25:51;;;;;;;7.13;5.50;;;-1.00;99.90;;;;;;5111660;28;20050;-62
2022/11/19 05:28:17;;;;;;;7.53;5.55;;;-1.00;99.90;;;;;;5113500;28;20092;-61
2022/11/19 05:30:43;;;;;;;8.90;6.07;;;-1.00;99.90;;;;;;5112957;28;20104;-61
2022/11/19 05:33:08;;;;;;;8.15;5.63;;;-1.00;99.90;;;;;;5093482;28;20036;-61
2022/11/19 05:35:34;;;;;;;7.93;6.13;;;-1.00;99.90;;;;;;5111812;28;20043;-61
2022/11/19 05:38:00;;;;;;;7.20;5.50;;;-1.00;99.90;;;;;;5111850;28;20028;-62
2022/11/19 05:40:26;;;;;;;9.95;6.25;;;-1.00;99.90;;;;;;5111264;28;20053;-61
2022/11/19 05:42:51;;;;;;;9.43;5.97;;;-1.00;99.90;;;;;;5111548;28;20039;-61
2022/11/19 05:45:17;;;;;;;9.00;6.50;;;-1.00;99.90;;;;;;5093174;28;20044;-61
2022/11/19 05:47:43;;;;;;;8.23;5.28;;;-1.10;99.90;;;;;;5093240;28;20653;-62
2022/11/19 05:50:09;;;;;;;8.57;5.82;;;-1.10;99.90;;;;;;5092880;28;20039;-61
2022/11/19 05:52:34;;;;;;;8.00;5.38;;;-1.10;99.90;;;;;;5092681;28;20040;-62
2022/11/19 05:55:00;;;;;;;8.98;6.20;;;-1.10;99.90;;;;;;5092629;28;20051;-61
2022/11/19 05:57:26;;;;;;;8.52;5.88;;;-1.10;99.90;;;;;;5092614;28;20036;-61
2022/11/19 05:59:52;;;;;;;10.20;5.80;;;-1.10;99.90;;;;;;5092590;28;20036;-61
2022/11/19 06:02:17;;;;;;;7.70;5.85;;;-1.10;99.90;;;;;;5103155;28;20503;-62
2022/11/19 06:04:43;;;;;;;8.57;6.13;;;-1.10;99.90;;;;;;5110422;28;20114;-61
2022/11/19 06:07:09;;;;;;;9.13;5.55;;;-1.10;99.90;;;;;;5110710;28;20115;-62
2022/11/19 06:09:35;;;;;;;9.07;5.60;;;-1.10;99.90;;;;;;5110353;28;20117;-62
2022/11/19 06:12:01;;;;;;;9.35;6.38;;;-1.20;99.90;;;;;;5110944;28;20079;-62
2022/11/19 06:14:27;;;;;;;8.95;6.47;;;-1.20;99.90;;;;;;5110328;28;20525;-62
2022/11/19 06:16:55;;;;;;;8.60;6.30;;;-1.20;99.90;;;;;;5111276;28;20513;-62
2022/11/19 06:19:21;;;;;;;8.73;6.10;;;-1.20;99.90;;;;;;5112758;28;20162;-62
2022/11/19 06:21:46;;;;;;;9.23;6.22;;;-1.20;99.90;;;;;;5112531;28;20459;-61
2022/11/19 06:24:12;;;;;;;8.07;5.50;;;-1.20;99.90;;;;;;5112495;28;20036;-61
2022/11/19 06:26:39;;;;;;;8.02;5.47;;;-1.30;99.90;;;;;;5112588;28;20039;-62
2022/11/19 06:29:05;;;;;;;6.53;5.20;;;-1.30;99.90;;;;;;5112495;28;20119;-61
2022/11/19 06:31:31;;;;;;;12.32;6.32;;;-1.20;99.90;;;;;;5111311;28;20027;-60
2022/11/19 06:33:57;;;;;;;9.63;6.45;;;-1.20;99.90;;;;;;5110806;28;20440;-62
2022/11/19 06:36:23;;;;;;;8.82;6.30;;;-1.30;99.90;;;;;;5110110;28;20053;-61
2022/11/19 06:38:49;;;;;;;7.55;5.70;;;-1.30;99.90;;;;;;5092052;28;20367;-61
2022/11/19 06:41:15;;;;;;;8.55;5.50;;;-1.30;99.90;;;;;;5110274;28;20042;-62
2022/11/19 06:43:41;;;;;;;7.72;5.60;;;-1.30;99.90;;;;;;5110677;28;20070;-61
2022/11/19 06:46:08;;;;;;;8.68;5.57;;;-1.30;99.90;;;;;;5112219;28;20504;-61
2022/11/19 06:48:33;;;;;;;9.43;6.43;;;-1.30;99.90;;;;;;5112261;28;20401;-61
2022/11/19 06:51:00;;;;;;;8.90;6.40;;;-1.30;99.90;;;;;;5112037;28;20039;-62
2022/11/19 06:53:26;;;;;;;9.65;5.63;;;-1.30;99.90;;;;;;5112087;28;20366;-61
2022/11/19 06:56:00;;;;;;;7.78;5.47;;;-1.30;99.90;;;;;;5112102;28;20039;-60
2022/11/19 06:58:26;;;;;;;9.23;6.15;;;-1.30;99.90;;;;;;5112350;28;20085;-61
2022/11/19 07:00:52;;;;;;;9.32;6.38;;;-1.30;99.90;;;;;;5112311;28;20043;-61
2022/11/19 07:03:18;;;;;;;11.02;6.47;;;-1.30;99.90;;;;;;5110018;28;20035;-61
2022/11/19 07:05:43;;;;;;;9.60;6.25;;;-1.30;99.90;;;;;;5110491;28;20080;-61
2022/11/19 07:08:09;;;;;;;9.05;6.38;;;-1.30;99.90;;;;;;5111803;28;20481;-61
2022/11/19 07:10:34;;;;;;;8.65;6.10;;;-1.90;99.90;;;;;;5112206;28;20031;-61
2022/11/19 07:13:00;;;;;;;9.10;6.53;;;-1.30;99.90;;;;;;5093043;28;20130;-61
2022/11/19 07:15:26;;;;;;;11.43;6.43;;;-1.30;99.90;;;;;;5112012;28;20477;-61
2022/11/19 07:17:53;;;;;;;8.55;6.70;;;-1.30;99.90;;;;;;5093711;28;20036;-61
2022/11/19 07:20:19;;;;;;;10.93;6.15;;;-1.30;99.90;;;;;;5111907;28;20119;-61
2022/11/19 07:22:44;;;;;;;8.45;5.68;;;-1.40;99.90;;;;;;5111952;28;20127;-61
2022/11/19 07:25:11;;;;;;;8.20;6.13;;;-1.40;99.90;;;;;;5111877;28;20046;-61
2022/11/19 07:27:37;;;;;;;9.88;6.57;;;-1.30;99.90;;;;;;5112095;28;20064;-61
2022/11/19 07:30:05;;;;;;;9.02;6.38;;;-1.30;99.90;;;;;;5111860;28;20075;-61
2022/11/19 07:32:30;;;;;;;9.20;6.40;;;-1.30;99.90;;;;;;5110680;28;20043;-61
2022/11/19 07:34:56;;;;;;;8.68;6.32;;;-1.30;99.90;;;;;;5109347;28;20036;-62
2022/11/19 07:37:22;;;;;;;7.97;6.00;;;-1.40;99.90;;;;;;5109838;28;20389;-61
2022/11/19 07:39:48;;;;;;;8.85;6.20;;;-1.30;99.90;;;;;;5110319;28;20359;-61
2022/11/19 07:44:57;;;;;;;7.93;5.95;;;-1.40;99.90;;;;;;5115456;28;20042;-61
2022/11/19 07:47:23;;;;;;;7.72;6.00;;;-1.30;99.90;;;;;;5115590;28;20047;-61
2022/11/19 07:49:49;;;;;;;7.45;6.00;;;-1.30;99.90;;;;;;5097314;28;20101;-61
2022/11/19 07:52:14;;;;;;;9.57;6.43;;;-1.30;99.90;;;;;;5115211;28;20114;-62
2022/11/19 07:54:40;;;;;;;8.65;6.80;;;-1.30;99.90;;;;;;5115429;28;20430;-62
2022/11/19 07:57:06;;;;;;;8.85;7.05;;;-1.20;99.90;;;;;;5115330;28;20180;-61
2022/11/19 07:59:32;;;;;;;7.22;5.72;;;-1.20;99.90;;;;;;5115179;28;20039;-61
2022/11/19 08:01:57;;;;;;;9.13;6.57;;;-1.20;99.90;;;;;;5114320;28;20027;-61
2022/11/19 08:04:25;;;;;;;8.88;6.10;;;-1.20;99.90;;;;;;5112947;28;20392;-62
2022/11/19 08:06:51;;;;;;;9.15;6.47;;;-1.10;99.90;;;;;;5112864;28;20088;-62
2022/11/19 08:09:17;;;;;;;8.77;6.05;;;-1.10;99.90;;;;;;5113225;28;20043;-62
2022/11/19 08:11:42;;;;;;;11.00;6.70;;;-1.00;99.90;;;;;;5115009;28;20232;-62
2022/11/19 08:14:12;;;;;;;8.57;6.28;;;-1.00;99.90;;;;;;5114827;28;20048;-62
2022/11/19 08:19:21;;;;;;;8.57;6.15;;;-0.80;99.90;;;;;;5114675;28;20486;-62
2022/11/19 08:21:47;;;;;;;7.85;6.40;;;-0.70;99.90;;;;;;5115012;28;20032;-62
2022/11/19 08:24:15;;;;;;;11.38;6.78;;;-0.70;99.90;;;;;;5114520;28;20039;-62
2022/11/19 08:26:41;;;;;;;12.88;7.60;;;-0.60;99.90;;;;;;5114630;28;20478;-62
2022/11/19 08:29:07;;;;;;;9.55;6.45;;;-0.50;99.90;;;;;;5114425;28;20032;-62
2022/11/19 08:31:33;;;;;;;8.07;6.13;;;-0.30;99.90;;;;;;5095505;28;20124;-63
2022/11/19 08:34:01;;;;;;;10.23;6.68;;;-0.20;99.90;;;;;;5114785;28;20143;-62
2022/11/19 08:36:26;;;;;;;10.10;6.80;;;-0.20;99.90;;;;;;5114643;28;20043;-62
2022/11/19 08:38:54;;;;;;;9.68;6.82;;;-0.10;99.90;;;;;;5114457;28;20833;-62
2022/11/19 08:44:04;;;;;;;9.82;7.13;;;0.00;99.90;;;;;;5114377;28;20036;-62
2022/11/19 08:46:30;;;;;;;9.73;6.78;;;0.00;99.90;;;;;;5095874;28;20081;-61
2022/11/19 08:48:55;;;;;;;9.38;7.10;;;0.00;99.90;;;;;;5096146;28;20118;-62
2022/11/19 08:51:21;;;;;;;9.55;6.72;;;0.00;99.90;;;;;;5113948;28;20039;-63
2022/11/19 08:53:46;;;;;;;10.68;7.20;;;0.10;99.90;;;;;;5113442;28;20115;-63
2022/11/19 08:56:12;;;;;;;8.75;6.50;;;0.20;99.90;;;;;;5113766;28;20039;-63
2022/11/19 08:58:38;;;;;;;10.63;6.65;;;0.30;99.90;;;;;;5114086;28;20032;-62
2022/11/19 09:01:11;;;;;;;8.93;6.05;;;0.30;99.90;;;;;;5113882;28;20057;-66
2022/11/19 09:03:37;;;;;;;9.43;6.20;;;0.30;99.90;;;;;;5114114;28;20046;-65
2022/11/19 09:06:03;;;;;;;8.55;6.70;;;0.50;99.90;;;;;;5114081;28;20043;-65
2022/11/19 09:08:29;;;;;;;8.48;6.65;;;0.50;99.90;;;;;;5113970;28;20043;-64
2022/11/19 09:10:55;;;;;;;9.50;6.43;;;0.50;99.90;;;;;;5113727;28;20066;-65
2022/11/19 09:13:20;;;;;;;7.68;5.85;;;0.60;99.90;;;;;;5113687;28;20048;-64
2022/11/19 09:15:50;;;;;;;9.38;6.85;;;0.60;99.90;;;;;;5113996;28;20044;-64
2022/11/19 09:18:16;;;;;;;9.60;6.60;;;0.70;99.90;;;;;;5113857;28;20479;-64
2022/11/19 09:20:42;;;;;;;7.50;6.43;;;0.80;99.90;;;;;;5113471;28;20111;-65
2022/11/19 09:23:08;;;;;;;9.05;6.18;;;0.80;99.90;;;;;;5113346;28;20517;-64
2022/11/19 09:25:33;;;;;;;8.63;6.78;;;0.90;99.90;;;;;;5095565;28;20385;-65
2022/11/19 09:27:59;;;;;;;8.98;6.30;;;1.00;99.90;;;;;;5113766;28;20074;-65
2022/11/19 09:30:25;;;;;;;9.80;7.00;;;1.00;99.90;;;;;;5113517;28;20042;-65
2022/11/19 09:32:50;;;;;;;8.63;6.40;;;1.10;99.90;;;;;;5094552;28;20047;-65
2022/11/19 09:35:16;;;;;;;7.97;6.10;;;1.10;99.90;;;;;;5094431;28;20069;-65
2022/11/19 09:37:42;;;;;;;8.75;6.70;;;1.10;99.90;;;;;;5113234;28;20401;-64
2022/11/19 09:40:14;;;;;;;8.93;6.47;;;1.10;99.90;;;;;;5113327;28;20369;-64
2022/11/19 09:42:56;;;;;;;8.77;6.38;;;1.10;99.90;;;;;;5113439;28;20089;-65
2022/11/19 09:45:40;;;;;;;9.20;6.60;;;1.20;99.90;;;;;;5113694;28;20039;-63
2022/11/19 09:48:20;;;;;;;9.90;6.57;;;1.30;99.90;;;;;;5113211;28;20039;-63
2022/11/19 09:50:58;;;;;;;8.38;6.30;;;1.30;99.90;;;;;;5113272;28;20358;-63
2022/11/19 09:53:29;;;;;;;9.95;6.43;;;1.40;99.90;;;;;;5112925;28;20091;-63
2022/11/19 09:55:56;;;;;;;7.90;6.18;;;1.50;99.90;;;;;;5112923;28;20036;-63
2022/11/19 09:58:31;;;;;;;8.15;6.43;;;1.50;99.90;;;;;;5112723;28;20039;-64
2022/11/19 10:00:58;;;;;;;8.18;6.75;;;1.70;99.90;;;;;;5112642;28;20133;-65
2022/11/19 10:03:25;;;;;;;9.15;7.03;;;1.70;99.90;;;;;;5113011;28;20113;-64
2022/11/19 10:06:08;;;;;;;9.88;6.78;;;1.80;99.90;;;;;;5112635;28;20039;-70
2022/11/19 10:08:34;;;;;;;7.85;5.60;;;1.90;99.90;;;;;;5112532;28;20035;-67
2022/11/19 10:11:34;;;;;;;8.30;6.20;;;2.20;99.90;;;;;;5112377;28;20058;-67
2022/11/19 10:14:37;;;;;;;9.88;6.80;;;2.30;99.90;;;;;;5112143;28;20043;-68
2022/11/19 10:17:23;;;;;;;7.13;5.95;;;2.40;99.90;;;;;;5110447;28;20040;-67
2022/11/19 10:20:19;;;;;;;8.43;6.07;;;2.70;99.90;;;;;;5094090;28;20050;-66
2022/11/19 10:23:01;;;;;;;7.63;6.28;;;2.90;99.90;;;;;;5112373;28;20035;-66
2022/11/19 10:25:41;;;;;;;8.85;5.90;;;3.20;99.90;;;;;;5112290;28;20027;-67
2022/11/19 10:28:12;;;;;;;6.93;5.78;;;3.50;99.90;;;;;;5093477;28;20059;-67
2022/11/19 10:30:40;;;;;;;6.97;5.57;;;3.90;99.90;;;;;;5112344;28;20042;-69
2022/11/19 10:33:31;;;;;;;6.57;5.10;;;3.70;99.90;;;;;;5112204;28;20366;-68
2022/11/19 10:36:01;;;;;;;6.70;5.22;;;4.30;99.90;;;;;;5093179;28;20062;-67
2022/11/19 10:38:44;;;;;;;6.97;5.28;;;4.70;99.90;;;;;;5090382;28;20097;-68
2022/11/19 10:41:15;;;;;;;7.82;5.53;;;5.50;99.90;;;;;;5090083;28;20048;-68
2022/11/19 10:43:53;;;;;;;7.10;5.63;;;5.80;99.90;;;;;;5108903;28;20027;-68
2022/11/19 10:46:23;;;;;;;6.15;4.70;;;5.90;99.90;;;;;;5110768;28;20036;-68
2022/11/19 10:48:54;;;;;;;6.78;5.03;;;6.40;99.90;;;;;;5106843;28;20046;-67
2022/11/19 10:51:26;;;;;;;6.35;5.13;;;7.10;99.90;;;;;;5101575;28;20036;-67
2022/11/19 10:53:56;;;;;;;6.28;4.80;;;7.90;99.90;;;;;;5084082;28;20047;-67
2022/11/19 10:56:35;;;;;;;9.70;4.97;;;7.90;99.90;;;;;;5101287;28;20054;-68
2022/11/19 10:59:11;;;;;;;6.65;5.38;;;7.40;99.90;;;;;;5090130;28;20103;-70
2022/11/19 11:01:41;;;;;;;5.82;4.53;;;7.90;99.90;;;;;;5088443;28;20028;-68
2022/11/19 11:04:20;;;;;;;5.70;4.57;;;8.40;99.90;;;;;;5076113;28;20486;-67
2022/11/19 11:06:48;;;;;;;4.93;3.95;;;8.30;99.90;;;;;;5092227;28;20394;-70
2022/11/19 11:09:40;;;;;;;5.63;4.05;;;8.30;99.90;;;;;;5101467;28;20189;-72
2022/11/19 11:15:21;;;;;;;6.15;4.00;;;7.40;99.80;;;;;;5095923;28;20122;-71
2022/11/19 11:17:59;;;;;;;7.30;4.32;;;7.30;99.90;;;;;;5075868;28;20078;-71
2022/11/19 11:20:27;;;;;;;4.72;3.80;;;7.20;99.90;;;;;;5082048;28;20117;-72
2022/11/19 11:23:09;;;;;;;4.47;3.92;;;7.30;99.90;;;;;;5077902;28;20653;-73
2022/11/19 11:25:37;;;;;;;4.72;3.65;;;7.80;99.90;;;;;;5095941;28;20083;-75
2022/11/19 11:28:10;;;;;;;5.88;3.63;;;8.70;99.90;;;;;;5078031;28;20047;-75
2022/11/19 11:30:35;;;;;;;4.65;3.63;;;9.70;99.30;;;;;;5113291;28;20063;-73
2022/11/19 11:33:24;;;;;;;5.28;3.90;;;10.60;98.00;;;;;;5116187;28;20074;-74
2022/11/19 11:35:51;;;;;;;4.38;3.83;;;10.60;97.50;;;;;;5115322;28;20036;-74
2022/11/19 11:38:21;;;;;;;5.40;3.70;;;11.40;96.80;;;;;;5113614;28;20031;-74
2022/11/19 11:41:08;;;;;;;5.97;3.50;;;11.30;96.50;;;;;;5095873;28;20040;-76
2022/11/19 11:43:37;;;;;;;4.95;3.72;;;11.20;95.60;;;;;;5115543;28;20046;-75
2022/11/19 11:46:06;;;;;;;9.02;3.50;;;11.90;95.40;;;;;;5115582;28;20479;-76
2022/11/19 11:48:41;;;;;;;3.95;3.55;;;11.90;96.20;;;;;;5115442;28;20112;-75
2022/11/19 11:51:07;;;;;;;3.88;2.90;;;12.10;96.00;;;;;;5097217;28;20092;-76
2022/11/19 11:53:33;;;;;;;5.82;3.60;;;12.70;95.60;;;;;;5097203;28;20040;-77
2022/11/19 11:56:01;;;;;;;4.82;3.63;;;12.70;95.30;;;;;;5115190;28;20539;-76
2022/11/19 11:58:32;;;;;;;4.45;3.35;;;13.10;94.70;;;;;;5115035;28;20512;-77
2022/11/19 12:01:13;;;;;;;5.47;3.92;;;13.20;94.50;;;;;;5115176;28;20036;-75
2022/11/19 12:03:58;;;;;;;4.15;3.25;;;13.30;94.10;;;;;;5096250;28;20122;-75
2022/11/19 12:06:27;;;;;;;4.38;3.38;;;11.90;93.90;;;;;;5114961;28;20054;-74
2022/11/19 12:09:13;;;;;;;3.92;2.95;;;10.80;95.10;;;;;;5113279;28;20043;-76
2022/11/19 12:11:54;;;;;;;4.45;3.40;;;9.60;95.90;;;;;;5095905;28;20069;-76
2022/11/19 12:14:30;;;;;;;3.88;3.45;;;8.70;97.30;;;;;;5096484;28;20053;-75
2022/11/19 12:17:18;;;;;;;4.90;3.67;;;8.10;98.30;;;;;;5096446;28;20051;-74
2022/11/19 12:20:02;;;;;;;4.55;3.50;;;8.30;98.90;;;;;;5096916;28;20063;-73
2022/11/19 12:22:34;;;;;;;3.72;3.10;;;8.50;98.60;;;;;;5093258;28;20122;-75
2022/11/19 12:25:18;;;;;;;5.78;3.15;;;8.20;99.90;;;;;;5060237;28;20047;-73
2022/11/19 12:27:56;;;;;;;4.55;3.22;;;7.70;99.40;;;;;;5094102;28;20046;-76
2022/11/19 12:30:24;;;;;;;4.82;3.67;;;7.20;99.90;;;;;;5093220;28;20067;-77
2022/11/19 12:33:19;;;;;;;4.00;3.33;;;6.60;99.90;;;;;;5097238;28;20032;-74
2022/11/19 12:35:51;;;;;;;5.85;3.72;;;6.30;99.90;;;;;;5077798;28;20071;-73
2022/11/19 12:38:46;;;;;;;5.32;3.63;;;5.90;99.90;;;;;;5068346;28;20051;-73
2022/11/19 12:41:30;;;;;;;4.72;3.67;;;5.70;99.90;;;;;;5076299;28;20047;-71
2022/11/19 12:43:57;;;;;;;3.70;3.08;;;5.30;99.90;;;;;;5111676;28;20508;-70
2022/11/19 12:46:45;;;;;;;5.53;3.92;;;5.20;99.90;;;;;;5114266;28;20057;-71
2022/11/19 12:49:45;;;;;;;4.82;3.63;;;5.10;99.90;;;;;;5114446;28;20034;-70
2022/11/19 12:52:46;;;;;;;7.28;3.92;;;4.90;99.90;;;;;;5094374;28;20105;-70
2022/11/19 12:55:35;;;;;;;4.63;3.95;;;4.80;99.90;;;;;;5028660;28;20046;-70
2022/11/19 12:58:39;;;;;;;5.65;3.83;;;4.80;99.90;;;;;;5004839;28;20136;-62
2022/11/19 13:01:18;;;;;;;6.97;4.00;;;4.80;99.90;;;;;;4922419;29;20399;-64
2022/11/19 13:04:15;;;;;;;5.43;3.75;;;4.80;99.90;;;;;;4918654;29;20051;-62
2022/11/19 13:06:57;;;;;;;5.00;3.70;;;4.80;99.90;;;;;;4927864;28;20379;-63
2022/11/19 13:09:49;;;;;;;6.38;4.20;;;4.80;99.90;;;;;;4953237;28;20105;-62
2022/11/19 13:12:19;;;;;;;6.55;4.63;;;4.70;99.90;;;;;;4937139;29;20062;-71
2022/11/19 13:14:55;;;;;;;5.95;4.53;;;4.80;99.90;;;;;;4933749;29;20052;-71
2022/11/19 13:17:29;;;;;;;4.53;3.65;;;4.80;99.90;;;;;;4933762;29;20450;-71
2022/11/19 13:20:02;;;;;;;5.05;3.53;;;4.70;99.90;;;;;;4933688;29;20043;-70
2022/11/19 13:22:35;;;;;;;4.88;4.07;;;4.80;99.90;;;;;;4933684;29;20043;-70
2022/11/19 13:25:17;;;;;;;6.72;3.97;;;4.80;99.90;;;;;;4933433;29;20379;-70
2022/11/19 13:27:45;;;;;;;6.00;4.28;;;4.90;99.90;;;;;;4933570;29;20052;-70
2022/11/19 13:30:25;;;;;;;5.78;4.50;;;4.90;99.90;;;;;;4933462;29;20418;-70
2022/11/19 13:33:13;;;;;;;6.90;4.22;;;4.90;99.90;;;;;;5091558;28;20062;-70